createdAt,value
2019-06-01T00:01:35.585Z,9.10
2019-06-01T00:04:04.211Z,9.00
2019-06-01T00:06:33.201Z,9.00
2019-06-01T00:09:01.765Z,8.90
2019-06-01T00:11:30.326Z,8.90
2019-06-01T00:13:58.930Z,8.80
2019-06-01T00:16:27.502Z,8.80
2019-06-01T00:18:56.173Z,8.80
2019-06-01T00:21:24.786Z,8.80
2019-06-01T00:23:53.374Z,8.70
2019-06-01T00:26:21.975Z,8.70
2019-06-01T00:28:52.898Z,8.70
2019-06-01T00:31:20.851Z,8.60
2019-06-01T00:33:49.659Z,8.60
2019-06-01T00:36:18.395Z,8.60
2019-06-01T00:38:47.841Z,8.50
2019-06-01T00:41:16.763Z,8.50
2019-06-01T00:43:46.123Z,8.40
2019-06-01T00:46:15.032Z,8.40
2019-06-01T00:48:43.810Z,8.30
2019-06-01T00:51:12.701Z,8.30
2019-06-01T00:53:41.404Z,8.30
2019-06-01T00:56:10.019Z,8.30
2019-06-01T00:58:38.758Z,8.30
2019-06-01T01:01:07.817Z,8.30
2019-06-01T01:03:36.486Z,8.30
2019-06-01T01:06:05.187Z,8.30
2019-06-01T01:08:33.808Z,8.30
2019-06-01T01:11:02.438Z,8.20
2019-06-01T01:13:31.191Z,8.20
2019-06-01T01:16:00.163Z,8.20
2019-06-01T01:18:28.787Z,8.20
2019-06-01T01:20:57.370Z,8.10
2019-06-01T01:23:26.022Z,8.10
2019-06-01T01:25:54.759Z,8.10
2019-06-01T01:28:24.008Z,8.00
2019-06-01T01:31:08.350Z,8.00
2019-06-01T01:33:23.272Z,7.90
2019-06-01T01:35:52.594Z,7.90
2019-06-01T01:38:22.173Z,7.90
2019-06-01T01:40:52.013Z,7.80
2019-06-01T01:43:20.946Z,7.80
2019-06-01T01:45:50.639Z,7.80
2019-06-01T01:48:19.665Z,7.80
2019-06-01T01:50:48.214Z,7.80
2019-06-01T01:53:16.885Z,7.70
2019-06-01T01:55:45.458Z,7.70
2019-06-01T01:58:14.110Z,7.70
2019-06-01T02:00:45.756Z,7.70
2019-06-01T02:03:15.000Z,7.70
2019-06-01T02:05:44.108Z,7.70
2019-06-01T02:08:13.206Z,7.70
2019-06-01T02:10:42.187Z,7.60
2019-06-01T02:13:10.936Z,7.70
2019-06-01T02:15:40.871Z,7.70
2019-06-01T02:18:09.586Z,7.70
2019-06-01T02:20:38.225Z,7.60
2019-06-01T02:23:07.294Z,7.60
2019-06-01T02:25:36.329Z,7.60
2019-06-01T02:28:05.322Z,7.60
2019-06-01T02:30:34.014Z,7.60
2019-06-01T02:33:04.649Z,7.70
2019-06-01T02:35:33.022Z,7.70
2019-06-01T02:38:03.154Z,7.70
2019-06-01T02:40:32.170Z,7.70
2019-06-01T02:43:01.601Z,7.70
2019-06-01T02:45:31.295Z,7.70
2019-06-01T02:48:01.553Z,7.80
2019-06-01T02:50:30.499Z,7.80
2019-06-01T02:52:59.514Z,7.80
2019-06-01T02:55:28.190Z,7.90
2019-06-01T02:57:57.986Z,7.90
2019-06-01T03:00:29.911Z,7.90
2019-06-01T03:02:58.640Z,7.90
2019-06-01T03:05:27.939Z,8.00
2019-06-01T03:07:57.670Z,8.00
2019-06-01T03:10:27.421Z,8.00
2019-06-01T03:12:58.249Z,8.10
2019-06-01T03:15:29.850Z,8.20
2019-06-01T03:18:01.527Z,8.20
2019-06-01T03:20:32.285Z,8.30
2019-06-01T03:23:03.688Z,8.40
2019-06-01T03:25:34.139Z,8.50
2019-06-01T03:28:06.175Z,8.50
2019-06-01T03:30:45.535Z,8.60
2019-06-01T03:33:14.242Z,8.60
2019-06-01T03:35:43.144Z,8.70
2019-06-01T03:38:11.978Z,8.70
2019-06-01T03:40:40.614Z,8.80
2019-06-01T03:43:09.477Z,8.90
2019-06-01T03:45:38.161Z,9.00
2019-06-01T03:48:06.893Z,9.00
2019-06-01T03:50:35.542Z,9.10
2019-06-01T03:53:04.224Z,9.20
2019-06-01T03:55:33.211Z,9.30
2019-06-01T03:58:02.917Z,9.30
2019-06-01T04:00:31.854Z,9.40
2019-06-01T04:03:00.857Z,9.40
2019-06-01T04:05:29.714Z,9.50
2019-06-01T04:07:58.314Z,9.60
2019-06-01T04:10:26.882Z,9.60
2019-06-01T04:12:55.489Z,9.70
2019-06-01T04:15:24.226Z,9.70
2019-06-01T04:17:52.823Z,9.80
2019-06-01T04:20:21.579Z,9.80
2019-06-01T04:22:50.415Z,9.90
2019-06-01T04:25:19.255Z,9.90
2019-06-01T04:27:47.823Z,10.00
2019-06-01T04:30:16.501Z,10.00
2019-06-01T04:32:49.678Z,10.10
2019-06-01T04:35:15.478Z,10.20
2019-06-01T04:37:44.054Z,10.20
2019-06-01T04:40:13.688Z,10.30
2019-06-01T04:42:42.467Z,10.40
2019-06-01T04:45:12.501Z,10.40
2019-06-01T04:47:41.753Z,10.40
2019-06-01T04:50:11.101Z,10.50
2019-06-01T04:52:39.878Z,10.50
2019-06-01T04:55:09.081Z,10.60
2019-06-01T04:57:37.757Z,10.60
2019-06-01T05:00:21.211Z,10.70
2019-06-01T05:02:38.797Z,10.80
2019-06-01T05:05:09.155Z,10.90
2019-06-01T05:07:38.461Z,10.90
2019-06-01T05:10:07.657Z,11.00
2019-06-01T05:12:36.528Z,11.10
2019-06-01T05:15:07.664Z,11.20
2019-06-01T05:17:36.262Z,11.20
2019-06-01T05:20:08.293Z,11.30
2019-06-01T05:22:37.396Z,11.40
2019-06-01T05:25:07.131Z,11.50
2019-06-01T05:27:35.752Z,11.60
2019-06-01T05:30:07.338Z,11.60
2019-06-01T05:32:36.341Z,11.70
2019-06-01T05:35:07.694Z,11.80
2019-06-01T05:37:36.764Z,11.90
2019-06-01T05:40:10.486Z,11.90
2019-06-01T05:42:39.465Z,12.00
2019-06-01T05:45:11.175Z,12.00
2019-06-01T05:47:40.212Z,12.00
2019-06-01T05:50:10.474Z,12.10
2019-06-01T05:52:39.286Z,12.20
2019-06-01T05:55:08.914Z,12.30
2019-06-01T05:57:37.648Z,12.30
2019-06-01T06:00:09.024Z,12.50
2019-06-01T06:02:38.564Z,12.50
2019-06-01T06:05:08.767Z,12.60
2019-06-01T06:07:37.976Z,12.70
2019-06-01T06:10:07.794Z,12.80
2019-06-01T06:12:36.387Z,12.90
2019-06-01T06:15:07.012Z,13.00
2019-06-01T06:17:37.167Z,13.20
2019-06-01T06:20:09.129Z,13.30
2019-06-01T06:22:41.049Z,13.40
2019-06-01T06:25:08.792Z,13.50
2019-06-01T06:27:37.416Z,13.70
2019-06-01T06:30:08.111Z,13.80
2019-06-01T06:32:36.670Z,13.90
2019-06-01T06:35:06.901Z,14.00
2019-06-01T06:37:35.530Z,14.10
2019-06-01T06:40:07.561Z,14.20
2019-06-01T06:42:36.178Z,14.20
2019-06-01T06:45:06.521Z,14.30
2019-06-01T06:47:35.222Z,14.40
2019-06-01T06:50:05.375Z,14.50
2019-06-01T06:52:33.955Z,14.50
2019-06-01T06:55:02.807Z,14.60
2019-06-01T06:57:31.597Z,14.70
2019-06-01T07:00:00.244Z,14.80
2019-06-01T07:02:28.956Z,14.90
2019-06-01T07:04:57.680Z,14.80
2019-06-01T07:07:27.793Z,14.80
2019-06-01T07:09:56.806Z,14.90
2019-06-01T07:12:25.543Z,15.00
2019-06-01T07:14:54.192Z,15.00
2019-06-01T07:17:23.537Z,15.00
2019-06-01T07:19:52.610Z,14.90
2019-06-01T07:22:23.828Z,14.90
2019-06-01T07:24:52.744Z,14.90
2019-06-01T07:27:22.027Z,14.90
2019-06-01T07:29:50.845Z,14.90
2019-06-01T07:32:20.210Z,14.80
2019-06-01T07:34:49.786Z,14.80
2019-06-01T07:37:18.604Z,14.80
2019-06-01T07:39:47.265Z,14.70
2019-06-01T07:42:16.038Z,14.70
2019-06-01T07:44:45.215Z,14.70
2019-06-01T07:47:13.859Z,14.70
2019-06-01T07:49:42.433Z,14.80
2019-06-01T07:52:13.112Z,14.80
2019-06-01T07:54:41.301Z,14.80
2019-06-01T07:57:10.152Z,14.90
2019-06-01T07:59:39.606Z,14.90
2019-06-01T08:02:08.820Z,14.90
2019-06-01T08:04:52.496Z,15.00
2019-06-01T08:07:08.573Z,15.00
2019-06-01T08:09:37.530Z,15.00
2019-06-01T08:12:06.274Z,15.00
2019-06-01T08:14:35.260Z,15.10
2019-06-01T08:17:04.479Z,15.30
2019-06-01T08:19:33.291Z,15.40
2019-06-01T08:22:02.379Z,15.60
2019-06-01T08:24:32.335Z,15.90
2019-06-01T08:27:01.430Z,16.00
2019-06-01T08:29:30.753Z,16.20
2019-06-01T08:32:02.450Z,16.40
2019-06-01T08:34:31.434Z,16.40
2019-06-01T08:37:00.125Z,16.60
2019-06-01T08:39:29.439Z,16.70
2019-06-01T08:41:58.374Z,16.90
2019-06-01T08:44:27.698Z,17.20
2019-06-01T08:47:00.526Z,17.30
2019-06-01T08:49:30.726Z,17.30
2019-06-01T08:51:59.598Z,17.50
2019-06-01T08:54:28.610Z,17.60
2019-06-01T08:56:57.602Z,17.70
2019-06-01T08:59:26.285Z,17.90
2019-06-01T09:01:54.956Z,17.90
2019-06-01T09:04:24.505Z,18.10
2019-06-01T09:06:53.418Z,18.30
2019-06-01T09:09:22.170Z,18.30
2019-06-01T09:11:51.012Z,18.40
2019-06-01T09:14:19.683Z,18.30
2019-06-01T09:16:48.378Z,18.30
2019-06-01T09:19:17.246Z,18.60
2019-06-01T09:21:46.197Z,19.40
2019-06-01T09:24:14.822Z,20.60
2019-06-01T09:26:43.481Z,21.60
2019-06-01T09:29:12.151Z,22.20
2019-06-01T09:31:40.725Z,22.30
2019-06-01T09:34:09.564Z,22.10
2019-06-01T09:36:38.164Z,22.80
2019-06-01T09:39:08.458Z,23.70
2019-06-01T09:41:37.110Z,24.40
2019-06-01T09:44:05.849Z,25.00
2019-06-01T09:46:35.624Z,24.60
2019-06-01T09:49:04.870Z,25.00
2019-06-01T09:51:33.577Z,25.10
2019-06-01T09:54:02.544Z,25.70
2019-06-01T09:56:33.428Z,26.90
2019-06-01T09:59:01.755Z,27.50
2019-06-01T10:01:30.437Z,27.90
2019-06-01T10:03:59.119Z,29.10
2019-06-01T10:06:28.375Z,29.30
2019-06-01T10:08:57.327Z,28.70
2019-06-01T10:11:26.114Z,27.90
2019-06-01T10:13:54.718Z,27.40
2019-06-01T10:16:23.718Z,27.30
2019-06-01T10:18:52.387Z,27.50
2019-06-01T10:21:21.133Z,28.00
2019-06-01T10:23:50.057Z,28.50
2019-06-01T10:26:19.004Z,27.90
2019-06-01T10:28:47.712Z,27.80
2019-06-01T10:31:16.423Z,27.90
2019-06-01T10:33:45.165Z,27.80
2019-06-01T10:36:20.379Z,27.60
2019-06-01T10:38:44.387Z,27.30
2019-06-01T10:41:13.062Z,27.40
2019-06-01T10:43:41.794Z,27.30
2019-06-01T10:46:10.874Z,27.50
2019-06-01T10:48:40.130Z,28.10
2019-06-01T10:51:09.008Z,28.40
2019-06-01T10:53:38.203Z,28.70
2019-06-01T10:56:07.013Z,28.60
2019-06-01T10:58:54.441Z,28.60
2019-06-01T11:01:07.092Z,28.90
2019-06-01T11:03:36.688Z,28.80
2019-06-01T11:06:06.051Z,29.00
2019-06-01T11:08:35.475Z,29.40
2019-06-01T11:11:04.926Z,29.50
2019-06-01T11:13:34.900Z,29.90
2019-06-01T11:16:03.848Z,29.50
2019-06-01T11:18:33.184Z,29.70
2019-06-01T11:21:01.949Z,30.00
2019-06-01T11:23:30.816Z,30.40
2019-06-01T11:25:59.519Z,30.20
2019-06-01T11:28:28.091Z,30.00
2019-06-01T11:30:56.836Z,29.70
2019-06-01T11:33:25.614Z,29.50
2019-06-01T11:35:54.179Z,29.50
2019-06-01T11:38:22.775Z,29.60
2019-06-01T11:40:51.480Z,30.00
2019-06-01T11:43:20.097Z,30.50
2019-06-01T11:45:48.655Z,31.40
2019-06-01T11:48:19.791Z,31.50
2019-06-01T11:50:48.464Z,30.20
2019-06-01T11:53:17.073Z,28.70
2019-06-01T11:55:45.784Z,28.00
2019-06-01T11:58:14.551Z,28.20
2019-06-01T12:00:43.776Z,28.20
2019-06-01T12:03:12.701Z,28.60
2019-06-01T12:05:42.105Z,28.90
2019-06-01T12:08:10.937Z,29.10
2019-06-01T12:10:40.982Z,29.00
2019-06-01T12:13:09.829Z,29.10
2019-06-01T12:15:38.534Z,29.60
2019-06-01T12:18:07.385Z,30.30
2019-06-01T12:20:36.648Z,30.50
2019-06-01T12:23:05.594Z,30.20
2019-06-01T12:25:34.663Z,29.30
2019-06-01T12:28:03.268Z,28.40
2019-06-01T12:30:31.972Z,28.00
2019-06-01T12:33:00.564Z,27.70
2019-06-01T12:35:29.700Z,27.20
2019-06-01T12:38:05.933Z,26.70
2019-06-01T12:40:28.740Z,26.40
2019-06-01T12:42:57.337Z,26.30
2019-06-01T12:45:26.122Z,26.50
2019-06-01T12:47:58.343Z,26.90
2019-06-01T12:50:25.485Z,26.70
2019-06-01T12:52:54.130Z,26.50
2019-06-01T12:55:22.788Z,26.20
2019-06-01T12:57:51.540Z,26.00
2019-06-01T13:00:20.587Z,26.00
2019-06-01T13:02:59.542Z,25.80
2019-06-01T13:05:19.901Z,25.70
2019-06-01T13:07:59.692Z,26.00
2019-06-01T13:10:18.973Z,26.20
2019-06-01T13:12:47.584Z,26.40
2019-06-01T13:15:16.741Z,26.40
2019-06-01T13:17:45.403Z,26.70
2019-06-01T13:20:14.731Z,27.90
2019-06-01T13:22:43.573Z,29.30
2019-06-01T13:25:14.075Z,29.10
2019-06-01T13:27:44.130Z,28.30
2019-06-01T13:30:13.468Z,27.40
2019-06-01T13:32:42.633Z,26.40
2019-06-01T13:35:11.717Z,26.00
2019-06-01T13:37:40.286Z,26.30
2019-06-01T13:40:09.129Z,27.10
2019-06-01T13:42:37.999Z,28.40
2019-06-01T13:45:09.331Z,29.20
2019-06-01T13:47:37.964Z,29.60
2019-06-01T13:50:07.372Z,30.10
2019-06-01T13:52:36.357Z,30.60
2019-06-01T13:55:07.011Z,30.70
2019-06-01T13:57:39.316Z,31.70
2019-06-01T14:00:10.261Z,33.10
2019-06-01T14:02:38.930Z,33.10
2019-06-01T14:05:08.734Z,31.90
2019-06-01T14:07:37.730Z,30.50
2019-06-01T14:10:08.379Z,29.40
2019-06-01T14:12:37.025Z,28.80
2019-06-01T14:15:07.920Z,28.60
2019-06-01T14:17:37.000Z,28.20
2019-06-01T14:20:06.836Z,28.30
2019-06-01T14:22:35.584Z,28.20
2019-06-01T14:25:13.725Z,27.70
2019-06-01T14:27:37.156Z,27.50
2019-06-01T14:30:07.199Z,27.70
2019-06-01T14:32:36.213Z,28.10
2019-06-01T14:35:09.947Z,28.20
2019-06-01T14:37:38.534Z,27.60
2019-06-01T14:40:08.259Z,27.00
2019-06-01T14:42:36.849Z,26.60
2019-06-01T14:45:07.465Z,26.70
2019-06-01T14:47:36.309Z,27.50
2019-06-01T14:50:07.024Z,28.40
2019-06-01T14:52:35.621Z,29.70
2019-06-01T14:55:06.128Z,30.50
2019-06-01T14:57:34.954Z,30.00
2019-06-01T15:00:05.258Z,28.90
2019-06-01T15:02:34.247Z,27.70
2019-06-01T15:05:03.486Z,27.70
2019-06-01T15:07:32.196Z,28.30
2019-06-01T15:10:00.820Z,28.30
2019-06-01T15:12:29.919Z,27.70
2019-06-01T15:14:59.553Z,27.10
2019-06-01T15:17:28.401Z,26.70
2019-06-01T15:19:58.202Z,26.60
2019-06-01T15:22:27.126Z,26.50
2019-06-01T15:24:56.466Z,26.90
2019-06-01T15:27:25.382Z,27.40
2019-06-01T15:29:55.036Z,27.60
2019-06-01T15:32:26.599Z,28.60
2019-06-01T15:34:54.534Z,29.50
2019-06-01T15:37:23.163Z,29.50
2019-06-01T15:39:52.593Z,29.90
2019-06-01T15:42:21.306Z,29.20
2019-06-01T15:44:50.948Z,29.10
2019-06-01T15:47:19.835Z,29.60
2019-06-01T15:49:48.464Z,30.40
2019-06-01T15:52:18.069Z,31.20
2019-06-01T15:54:46.740Z,31.00
2019-06-01T15:57:15.318Z,30.90
2019-06-01T15:59:43.985Z,30.70
2019-06-01T16:02:12.832Z,30.00
2019-06-01T16:04:41.454Z,29.70
2019-06-01T16:07:10.091Z,29.60
2019-06-01T16:09:42.755Z,29.50
2019-06-01T16:12:09.239Z,29.30
2019-06-01T16:14:37.864Z,28.20
2019-06-01T16:17:06.645Z,27.10
2019-06-01T16:19:35.190Z,26.80
2019-06-01T16:22:04.987Z,26.80
2019-06-01T16:24:34.040Z,26.50
2019-06-01T16:27:02.743Z,27.50
2019-06-01T16:29:33.031Z,28.40
2019-06-01T16:32:02.987Z,29.00
2019-06-01T16:34:31.933Z,29.30
2019-06-01T16:37:01.096Z,29.90
2019-06-01T16:39:29.971Z,29.70
2019-06-01T16:41:59.793Z,28.90
2019-06-01T16:44:29.015Z,28.20
2019-06-01T16:46:59.643Z,27.80
2019-06-01T16:49:28.395Z,27.10
2019-06-01T16:51:59.238Z,26.90
2019-06-01T16:54:28.358Z,26.80
2019-06-01T16:56:58.056Z,26.40
2019-06-01T16:59:28.378Z,26.10
2019-06-01T17:01:57.135Z,25.40
2019-06-01T17:04:25.868Z,24.70
2019-06-01T17:06:55.072Z,24.10
2019-06-01T17:09:23.779Z,23.60
2019-06-01T17:11:52.521Z,23.20
2019-06-01T17:14:21.380Z,22.90
2019-06-01T17:16:50.010Z,22.70
2019-06-01T17:19:18.783Z,22.50
2019-06-01T17:21:47.486Z,22.40
2019-06-01T17:24:16.579Z,22.30
2019-06-01T17:26:45.336Z,22.30
2019-06-01T17:29:14.221Z,22.20
2019-06-01T17:31:54.044Z,22.10
2019-06-01T17:34:13.200Z,22.10
2019-06-01T17:36:41.857Z,22.10
2019-06-01T17:39:10.666Z,22.00
2019-06-01T17:41:39.479Z,22.00
2019-06-01T17:44:09.002Z,21.80
2019-06-01T17:46:52.264Z,21.60
2019-06-01T17:49:08.327Z,21.50
2019-06-01T17:51:37.287Z,21.40
2019-06-01T17:54:07.887Z,21.30
2019-06-01T17:56:36.617Z,21.20
2019-06-01T17:59:05.461Z,21.20
2019-06-01T18:01:34.566Z,21.10
2019-06-01T18:04:03.811Z,21.00
2019-06-01T18:06:33.075Z,20.90
2019-06-01T18:09:02.009Z,20.80
2019-06-01T18:11:32.282Z,20.70
2019-06-01T18:14:02.114Z,20.70
2019-06-01T18:16:32.901Z,20.70
2019-06-01T18:19:02.168Z,20.60
2019-06-01T18:21:33.417Z,20.60
2019-06-01T18:24:04.341Z,20.50
2019-06-01T18:26:31.864Z,20.40
2019-06-01T18:29:11.178Z,20.30
2019-06-01T18:31:40.597Z,20.20
2019-06-01T18:34:09.825Z,20.10
2019-06-01T18:36:38.730Z,20.10
2019-06-01T18:39:09.562Z,19.90
2019-06-01T18:41:38.346Z,19.90
2019-06-01T18:44:07.696Z,19.90
2019-06-01T18:46:37.175Z,19.90
2019-06-01T18:49:05.979Z,19.80
2019-06-01T18:51:34.614Z,19.70
2019-06-01T18:54:04.255Z,19.70
2019-06-01T18:56:33.133Z,19.60
2019-06-01T18:59:02.166Z,19.50
2019-06-01T19:01:30.873Z,19.40
2019-06-01T19:04:01.226Z,19.40
2019-06-01T19:06:29.999Z,19.30
2019-06-01T19:08:58.699Z,19.30
2019-06-01T19:11:35.689Z,19.30
2019-06-01T19:13:58.188Z,19.30
2019-06-01T19:16:26.942Z,19.20
2019-06-01T19:18:55.685Z,19.20
2019-06-01T19:21:24.606Z,19.10
2019-06-01T19:23:53.593Z,19.00
2019-06-01T19:26:22.243Z,19.00
2019-06-01T19:28:51.080Z,18.90
2019-06-01T19:31:21.944Z,18.90
2019-06-01T19:33:51.113Z,18.80
2019-06-01T19:36:19.770Z,18.80
2019-06-01T19:38:49.377Z,18.70
2019-06-01T19:41:18.710Z,18.70
2019-06-01T19:43:47.226Z,18.70
2019-06-01T19:46:15.982Z,18.70
2019-06-01T19:48:45.301Z,18.70
2019-06-01T19:51:14.557Z,18.60
2019-06-01T19:53:43.604Z,18.60
2019-06-01T19:56:12.913Z,18.50
2019-06-01T19:58:41.809Z,18.50
2019-06-01T20:01:12.171Z,18.50
2019-06-01T20:03:40.960Z,18.40
2019-06-01T20:06:10.669Z,18.40
2019-06-01T20:08:39.728Z,18.40
2019-06-01T20:11:08.350Z,18.30
2019-06-01T20:13:37.092Z,18.30
2019-06-01T20:16:06.129Z,18.30
2019-06-01T20:18:35.835Z,18.20
2019-06-01T20:21:05.004Z,18.20
2019-06-01T20:23:33.565Z,18.20
2019-06-01T20:26:02.355Z,18.10
2019-06-01T20:28:31.666Z,18.10
2019-06-01T20:31:00.391Z,18.10
2019-06-01T20:33:29.070Z,18.00
2019-06-01T20:35:57.640Z,18.00
2019-06-01T20:38:26.468Z,17.90
2019-06-01T20:40:55.231Z,17.90
2019-06-01T20:43:24.925Z,17.90
2019-06-01T20:45:56.784Z,17.90
2019-06-01T20:48:24.195Z,17.80
2019-06-01T20:50:52.939Z,17.80
2019-06-01T20:53:22.891Z,17.80
2019-06-01T20:55:51.958Z,17.80
2019-06-01T20:58:23.675Z,17.80
2019-06-01T21:00:52.833Z,17.70
2019-06-01T21:03:21.939Z,17.70
2019-06-01T21:05:50.690Z,17.70
2019-06-01T21:08:20.297Z,17.60
2019-06-01T21:10:49.323Z,17.50
2019-06-01T21:13:18.159Z,17.50
2019-06-01T21:15:47.058Z,17.50
2019-06-01T21:18:16.260Z,17.40
2019-06-01T21:20:44.999Z,17.40
2019-06-01T21:23:14.451Z,17.30
2019-06-01T21:25:43.631Z,17.30
2019-06-01T21:28:15.855Z,17.30
2019-06-01T21:30:43.283Z,17.30
2019-06-01T21:33:11.948Z,17.20
2019-06-01T21:35:40.537Z,17.20
2019-06-01T21:38:09.298Z,17.20
2019-06-01T21:40:37.985Z,17.10
2019-06-01T21:43:22.890Z,17.00
2019-06-01T21:45:36.894Z,16.90
2019-06-01T21:48:05.610Z,16.90
2019-06-01T21:50:34.254Z,16.80
2019-06-01T21:53:02.870Z,16.70
2019-06-01T21:55:31.533Z,16.60
2019-06-01T21:58:00.506Z,16.60
2019-06-01T22:00:36.062Z,16.50
2019-06-01T22:03:06.972Z,16.50
2019-06-01T22:05:35.940Z,16.50
2019-06-01T22:08:05.621Z,16.40
2019-06-01T22:10:34.360Z,16.40
2019-06-01T22:13:17.497Z,16.30
2019-06-01T22:15:33.266Z,16.30
2019-06-01T22:18:01.831Z,16.30
2019-06-01T22:20:30.670Z,16.20
2019-06-01T22:22:59.211Z,16.20
2019-06-01T22:25:28.117Z,16.20
2019-06-01T22:27:56.892Z,16.10
2019-06-01T22:30:26.407Z,16.00
2019-06-01T22:32:55.187Z,16.00
2019-06-01T22:35:24.750Z,16.00
2019-06-01T22:37:53.595Z,16.00
2019-06-01T22:40:22.757Z,15.90
2019-06-01T22:42:51.599Z,15.90
2019-06-01T22:45:20.283Z,15.90
2019-06-01T22:47:48.986Z,15.90
2019-06-01T22:50:17.742Z,15.80
2019-06-01T22:52:46.315Z,15.90
2019-06-01T22:55:14.970Z,15.90
2019-06-01T22:57:43.688Z,15.90
2019-06-01T23:00:12.679Z,16.00
2019-06-01T23:02:41.214Z,15.90
2019-06-01T23:05:10.175Z,15.90
2019-06-01T23:07:38.774Z,15.90
2019-06-01T23:10:07.973Z,15.90
2019-06-01T23:12:36.533Z,15.90
2019-06-01T23:15:07.318Z,15.90
2019-06-01T23:17:35.919Z,15.90
2019-06-01T23:20:08.112Z,15.80
2019-06-01T23:22:36.753Z,15.90
2019-06-01T23:25:05.934Z,15.80
2019-06-01T23:27:34.524Z,15.80
2019-06-01T23:30:04.331Z,15.80
2019-06-01T23:32:33.148Z,15.80
2019-06-01T23:35:01.786Z,15.80
2019-06-01T23:37:30.816Z,15.80
2019-06-01T23:39:59.784Z,15.80
2019-06-01T23:42:28.810Z,15.80
2019-06-01T23:44:57.459Z,15.80
2019-06-01T23:47:27.267Z,15.80
2019-06-01T23:49:56.047Z,15.70
2019-06-01T23:52:25.541Z,15.70
2019-06-01T23:54:54.315Z,15.70
2019-06-01T23:57:23.715Z,15.60
2019-06-01T23:59:52.445Z,15.60
